Vienna, Austria
Current Conditions -  °F | °C
As of 10:20 AM on Thursday 27 Nov 2014 (Local Time) from LOWW Reporting Station
Broken Clouds Broken Clouds  
Wind Chill: 25°   Ceiling: 3800
Heat Index: 36°   Visibility: 6mi
Dew Point: 28°   Wind: 20mph
Humidity: 75%   Direction: 140°SE
Pressure: 30.06"   Gusts: NA
Location:  48.22°N, 16.37°E
Report Text: LOWW 270820Z 14017KT 9999 FEW025 BKN038 02/M02 Q1018 NOSIG
Loading
Personal Weather Stations






























Interactive Weather Map New forecast layout! Learn more

10-Day Weather Forecast

Advertisements
Track Severe Weather on mobile